Time;durP1;ratioP1;P1;durP2;ratioP2;P2;SDS_P1;SDS_P2;PMS_P1;PMS_P2;Temp;Humidity;BMP_temperature;BMP_pressure;BME280_temperature;BME280_humidity;BME280_pressure;Samples;Min_cycle;Max_cycle;Signal;HPM_P1;HPM_P2
2022/05/15 00:01:48;;;;;;;18.83;12.37;;;;;;;;;;5072454;28;20463;-58
2022/05/15 00:04:14;;;;;;;29.23;14.10;;;;;;;;;;5073076;28;20423;-58
2022/05/15 00:06:40;;;;;;;19.27;12.93;;;;;;;;;;5073241;28;20400;-58
2022/05/15 00:09:06;;;;;;;20.50;12.90;;;;;;;;;;5072960;28;20811;-58
2022/05/15 00:11:32;;;;;;;21.60;13.07;;;;;;;;;;5072363;28;20486;-58
2022/05/15 00:13:58;;;;;;;16.43;11.77;;;;;;;;;;5072828;28;20808;-58
2022/05/15 00:16:24;;;;;;;14.20;10.63;;;;;;;;;;5072936;28;20507;-58
2022/05/15 00:18:51;;;;;;;18.50;11.23;;;;;;;;;;5072735;28;20463;-58
2022/05/15 00:21:18;;;;;;;20.20;11.17;;;;;;;;;;5072029;28;20451;-58
2022/05/15 00:23:44;;;;;;;16.80;11.30;;;;;;;;;;5072704;28;20422;-58
2022/05/15 00:26:10;;;;;;;18.80;11.90;;;;;;;;;;5072785;28;20915;-58
2022/05/15 00:28:36;;;;;;;13.73;11.57;;;;;;;;;;5072564;28;20407;-58
2022/05/15 00:31:03;;;;;;;19.50;11.53;;;;;;;;;;5071994;28;20734;-58
2022/05/15 00:33:29;;;;;;;16.63;11.47;;;;;;;;;;5071562;28;20426;-58
2022/05/15 00:35:55;;;;;;;17.40;11.60;;;;;;;;;;5072482;28;20794;-57
2022/05/15 00:38:21;;;;;;;20.37;11.17;;;;;;;;;;5072403;28;20402;-58
2022/05/15 00:40:47;;;;;;;20.03;11.43;;;;;;;;;;5071609;28;20472;-58
2022/05/15 00:43:34;;;;;;;12.47;10.63;;;;;;;;;;5072344;28;20418;-58
2022/05/15 00:46:00;;;;;;;14.37;10.00;;;;;;;;;;5072353;28;20397;-57
2022/05/15 00:48:26;;;;;;;17.03;10.97;;;;;;;;;;5072298;28;20474;-58
2022/05/15 00:50:52;;;;;;;18.63;10.60;;;;;;;;;;5071654;28;20417;-58
2022/05/15 00:53:19;;;;;;;16.33;10.40;;;;;;;;;;5072031;28;20536;-58
2022/05/15 00:55:46;;;;;;;16.17;10.80;;;;;;;;;;5072386;28;20402;-58
2022/05/15 00:58:32;;;;;;;15.33;10.80;;;;;;;;;;5072230;28;20400;-58
2022/05/15 01:00:58;;;;;;;18.00;10.13;;;;;;;;;;5070870;28;20477;-58
2022/05/15 01:03:24;;;;;;;15.00;10.00;;;;;;;;;;5071669;28;20414;-56
2022/05/15 01:05:52;;;;;;;13.53;9.20;;;;;;;;;;5071885;28;20408;-58
2022/05/15 01:08:18;;;;;;;13.00;9.33;;;;;;;;;;5071362;28;20406;-58
2022/05/15 01:10:45;;;;;;;16.27;9.87;;;;;;;;;;5071325;28;20401;-56
2022/05/15 01:13:12;;;;;;;15.00;9.77;;;;;;;;;;5072179;28;20437;-56
2022/05/15 01:15:39;;;;;;;14.23;9.60;;;;;;;;;;5071869;28;20399;-56
2022/05/15 01:18:06;;;;;;;14.70;9.27;;;;;;;;;;5072028;28;20375;-56
2022/05/15 01:20:32;;;;;;;15.93;10.20;;;;;;;;;;5071771;28;20399;-57
2022/05/15 01:22:59;;;;;;;17.40;9.10;;;;;;;;;;5071642;28;20397;-56
2022/05/15 01:25:27;;;;;;;15.83;9.57;;;;;;;;;;5071918;28;20391;-56
2022/05/15 01:28:13;;;;;;;16.73;9.70;;;;;;;;;;5071903;28;20393;-57
2022/05/15 01:30:42;;;;;;;9.87;8.23;;;;;;;;;;5071540;28;21010;-58
2022/05/15 01:33:09;;;;;;;12.00;9.87;;;;;;;;;;5071629;28;20398;-57
2022/05/15 01:35:35;;;;;;;13.90;10.50;;;;;;;;;;5071803;28;20770;-58
2022/05/15 01:38:01;;;;;;;12.27;9.60;;;;;;;;;;5071802;28;20429;-56
2022/05/15 01:40:27;;;;;;;19.17;10.40;;;;;;;;;;5071783;28;20442;-58
2022/05/15 01:42:53;;;;;;;16.00;9.40;;;;;;;;;;5071386;28;20462;-56
2022/05/15 01:45:19;;;;;;;16.43;10.37;;;;;;;;;;5071995;28;20439;-57
2022/05/15 01:47:45;;;;;;;13.03;11.03;;;;;;;;;;5071738;28;20399;-58
2022/05/15 01:50:12;;;;;;;11.87;9.30;;;;;;;;;;5071756;28;20809;-57
2022/05/15 01:52:38;;;;;;;16.10;10.67;;;;;;;;;;5071439;28;20933;-58
2022/05/15 01:55:05;;;;;;;14.00;10.40;;;;;;;;;;5071760;28;20424;-57
2022/05/15 01:57:31;;;;;;;15.30;10.17;;;;;;;;;;5071507;28;20405;-57
2022/05/15 01:59:57;;;;;;;12.90;9.80;;;;;;;;;;5071650;28;20406;-56
2022/05/15 02:02:23;;;;;;;11.03;9.40;;;;;;;;;;5071416;28;20448;-57
2022/05/15 02:04:50;;;;;;;10.63;9.47;;;;;;;;;;5071683;28;20449;-57
2022/05/15 02:07:16;;;;;;;14.00;10.57;;;;;;;;;;5071578;28;20475;-56
2022/05/15 02:09:42;;;;;;;11.60;10.40;;;;;;;;;;5071553;28;20401;-57
2022/05/15 02:12:08;;;;;;;11.90;9.97;;;;;;;;;;5074808;28;20425;-56
2022/05/15 02:14:34;;;;;;;15.23;10.87;;;;;;;;;;5075277;28;20833;-56
2022/05/15 02:17:00;;;;;;;11.37;10.23;;;;;;;;;;5075337;28;20827;-57
2022/05/15 02:19:26;;;;;;;17.53;11.30;;;;;;;;;;5075281;28;20401;-56
2022/05/15 02:21:52;;;;;;;14.90;11.73;;;;;;;;;;5074862;28;20891;-57
2022/05/15 02:24:18;;;;;;;11.50;10.40;;;;;;;;;;5075089;28;20416;-58
2022/05/15 02:26:44;;;;;;;13.87;11.17;;;;;;;;;;5075052;28;20393;-57
2022/05/15 02:29:10;;;;;;;13.23;10.37;;;;;;;;;;5075088;28;20397;-57
2022/05/15 02:31:37;;;;;;;13.77;10.33;;;;;;;;;;5074755;28;20409;-56
2022/05/15 02:34:02;;;;;;;12.27;10.60;;;;;;;;;;5074415;28;20421;-57
2022/05/15 02:36:29;;;;;;;13.03;11.53;;;;;;;;;;5074895;28;20415;-58
2022/05/15 02:38:55;;;;;;;15.03;11.17;;;;;;;;;;5074746;28;20832;-56
2022/05/15 02:41:21;;;;;;;15.20;11.47;;;;;;;;;;5074417;28;20955;-57
2022/05/15 02:43:47;;;;;;;13.23;10.40;;;;;;;;;;5074796;28;20434;-57
2022/05/15 02:46:13;;;;;;;12.23;11.03;;;;;;;;;;5074793;28;20397;-57
2022/05/15 02:51:24;;;;;;;14.33;11.50;;;;;;;;;;5074274;28;20377;-58
2022/05/15 02:53:50;;;;;;;14.90;11.00;;;;;;;;;;5074602;28;20406;-57
2022/05/15 02:56:27;;;;;;;12.00;10.80;;;;;;;;;;5074556;28;20393;-58
2022/05/15 02:58:53;;;;;;;13.40;10.23;;;;;;;;;;5074618;28;20416;-58
2022/05/15 03:01:19;;;;;;;13.37;10.13;;;;;;;;;;5074148;28;20456;-58
2022/05/15 03:03:46;;;;;;;16.73;10.93;;;;;;;;;;5074355;28;20425;-58
2022/05/15 03:06:12;;;;;;;11.73;10.63;;;;;;;;;;5074640;28;20409;-58
2022/05/15 03:08:41;;;;;;;13.90;11.17;;;;;;;;;;5074285;28;20412;-58
2022/05/15 03:11:08;;;;;;;12.60;10.20;;;;;;;;;;5074163;28;20436;-58
2022/05/15 03:13:35;;;;;;;13.93;10.70;;;;;;;;;;5074278;28;20420;-57
2022/05/15 03:16:01;;;;;;;11.07;9.50;;;;;;;;;;5074157;28;20400;-59
2022/05/15 03:18:27;;;;;;;11.73;10.50;;;;;;;;;;5074161;28;20480;-55
2022/05/15 03:20:53;;;;;;;10.30;9.23;;;;;;;;;;5073809;28;20459;-57
2022/05/15 03:23:19;;;;;;;11.73;10.50;;;;;;;;;;5072707;28;20413;-57
2022/05/15 03:25:45;;;;;;;11.03;9.93;;;;;;;;;;5073974;28;20482;-57
2022/05/15 03:28:11;;;;;;;13.70;10.60;;;;;;;;;;5074017;28;20396;-56
2022/05/15 03:30:38;;;;;;;15.87;11.10;;;;;;;;;;5073869;28;20397;-58
2022/05/15 03:33:04;;;;;;;14.83;10.60;;;;;;;;;;5072672;28;20393;-57
2022/05/15 03:35:30;;;;;;;11.17;10.00;;;;;;;;;;5073872;28;20764;-57
2022/05/15 03:37:56;;;;;;;12.00;10.80;;;;;;;;;;5073809;28;20403;-57
2022/05/15 03:40:22;;;;;;;15.00;11.10;;;;;;;;;;5073660;28;20397;-56
2022/05/15 03:42:48;;;;;;;11.17;10.13;;;;;;;;;;5073307;28;20452;-57
2022/05/15 03:45:14;;;;;;;12.33;9.90;;;;;;;;;;5073854;28;20428;-58
2022/05/15 03:47:50;;;;;;;18.37;11.07;;;;;;;;;;5073668;28;20460;-58
2022/05/15 03:50:17;;;;;;;11.30;10.00;;;;;;;;;;5073567;28;20404;-56
2022/05/15 03:52:43;;;;;;;14.60;10.33;;;;;;;;;;5073130;28;20428;-56
2022/05/15 03:55:10;;;;;;;11.93;10.10;;;;;;;;;;5073368;28;20427;-58
2022/05/15 03:57:36;;;;;;;12.60;9.57;;;;;;;;;;5073464;28;20412;-57
2022/05/15 04:00:03;;;;;;;13.03;10.40;;;;;;;;;;5073271;28;20897;-56
2022/05/15 04:02:30;;;;;;;14.23;11.17;;;;;;;;;;5072937;28;20445;-58
2022/05/15 04:04:56;;;;;;;11.10;9.93;;;;;;;;;;5073138;28;20794;-56
2022/05/15 04:07:22;;;;;;;17.87;10.10;;;;;;;;;;5073210;28;20915;-57
2022/05/15 04:09:49;;;;;;;17.80;10.33;;;;;;;;;;5073016;28;20400;-56
2022/05/15 04:12:15;;;;;;;14.90;10.10;;;;;;;;;;5072874;28;21081;-56
2022/05/15 04:14:41;;;;;;;13.07;10.60;;;;;;;;;;5073249;28;20417;-56
2022/05/15 04:17:07;;;;;;;13.47;10.00;;;;;;;;;;5072988;28;20907;-56
2022/05/15 04:19:37;;;;;;;12.73;11.13;;;;;;;;;;5072984;28;20428;-58
2022/05/15 04:22:04;;;;;;;11.33;10.17;;;;;;;;;;5072570;28;20448;-58
2022/05/15 04:24:31;;;;;;;12.97;10.40;;;;;;;;;;5072739;28;20454;-58
2022/05/15 04:26:57;;;;;;;13.17;10.00;;;;;;;;;;5072794;28;20912;-58
2022/05/15 04:29:24;;;;;;;17.63;10.50;;;;;;;;;;5072722;28;20397;-58
2022/05/15 04:31:55;;;;;;;11.57;9.50;;;;;;;;;;5072330;28;20401;-57
2022/05/15 04:34:21;;;;;;;14.67;11.13;;;;;;;;;;5072223;28;20493;-59
2022/05/15 04:36:47;;;;;;;13.43;10.13;;;;;;;;;;5072604;28;20455;-56
2022/05/15 04:39:13;;;;;;;11.93;9.50;;;;;;;;;;5072454;28;20948;-57
2022/05/15 04:41:39;;;;;;;12.67;8.87;;;;;;;;;;5072270;28;20444;-56
2022/05/15 04:44:05;;;;;;;13.10;10.77;;;;;;;;;;5072497;28;20519;-57
2022/05/15 04:46:31;;;;;;;11.93;9.90;;;;;;;;;;5072434;28;20748;-57
2022/05/15 04:48:58;;;;;;;11.37;9.90;;;;;;;;;;5072445;28;20524;-58
2022/05/15 04:51:24;;;;;;;10.33;9.30;;;;;;;;;;5071933;28;20405;-57
2022/05/15 04:53:50;;;;;;;10.77;9.53;;;;;;;;;;5072393;28;20505;-56
2022/05/15 04:56:16;;;;;;;13.97;9.83;;;;;;;;;;5072394;28;20879;-57
2022/05/15 04:58:42;;;;;;;18.63;10.20;;;;;;;;;;5072306;28;20408;-57
2022/05/15 05:01:08;;;;;;;13.37;10.17;;;;;;;;;;5071975;28;20452;-56
2022/05/15 05:03:34;;;;;;;11.80;9.43;;;;;;;;;;5072169;28;20420;-57
2022/05/15 05:06:00;;;;;;;12.10;10.03;;;;;;;;;;5072163;28;20913;-57
2022/05/15 05:08:26;;;;;;;15.50;9.67;;;;;;;;;;5072072;28;20440;-58
2022/05/15 05:10:52;;;;;;;13.80;10.13;;;;;;;;;;5071849;28;20500;-58
2022/05/15 05:13:18;;;;;;;11.53;9.50;;;;;;;;;;5072091;28;20428;-57
2022/05/15 05:15:44;;;;;;;14.13;10.57;;;;;;;;;;5072358;28;20457;-57
2022/05/15 05:18:13;;;;;;;14.37;10.03;;;;;;;;;;5072350;28;20405;-56
2022/05/15 05:20:39;;;;;;;12.07;8.80;;;;;;;;;;5072250;28;20446;-58
2022/05/15 05:23:05;;;;;;;10.30;9.47;;;;;;;;;;5071973;28;20390;-58
2022/05/15 05:25:31;;;;;;;14.77;9.27;;;;;;;;;;5071972;28;20416;-58
2022/05/15 05:27:57;;;;;;;11.50;9.00;;;;;;;;;;5071970;28;20405;-56
2022/05/15 05:30:24;;;;;;;11.00;9.87;;;;;;;;;;5071896;28;20788;-56
2022/05/15 05:32:50;;;;;;;12.27;9.90;;;;;;;;;;5071726;28;20412;-57
2022/05/15 05:35:17;;;;;;;14.63;10.47;;;;;;;;;;5071793;28;20429;-57
2022/05/15 05:37:43;;;;;;;20.20;11.10;;;;;;;;;;5071848;28;20397;-56
2022/05/15 05:40:10;;;;;;;11.47;9.70;;;;;;;;;;5071768;28;20399;-57
2022/05/15 05:42:36;;;;;;;16.80;11.23;;;;;;;;;;5071626;28;20951;-58
2022/05/15 05:45:03;;;;;;;12.60;10.90;;;;;;;;;;5071737;28;20429;-58
2022/05/15 05:47:30;;;;;;;14.70;11.27;;;;;;;;;;5075331;28;20965;-57
2022/05/15 05:49:56;;;;;;;15.37;10.97;;;;;;;;;;5076023;28;20164;-57
2022/05/15 05:52:24;;;;;;;16.10;9.87;;;;;;;;;;5075620;28;20434;-56
2022/05/15 05:54:50;;;;;;;11.70;9.90;;;;;;;;;;5075703;28;20420;-58
2022/05/15 05:57:16;;;;;;;18.63;10.10;;;;;;;;;;5075647;28;20813;-57
2022/05/15 05:59:42;;;;;;;14.10;10.10;;;;;;;;;;5075436;28;20402;-59
2022/05/15 06:02:07;;;;;;;13.23;9.33;;;;;;;;;;5075394;28;20494;-59
2022/05/15 06:04:41;;;;;;;13.13;10.23;;;;;;;;;;5075495;28;20818;-56
2022/05/15 06:07:08;;;;;;;16.83;9.10;;;;;;;;;;5075587;28;20450;-57
2022/05/15 06:09:36;;;;;;;12.40;9.70;;;;;;;;;;5075450;28;20403;-58
2022/05/15 06:12:02;;;;;;;12.87;9.00;;;;;;;;;;5075268;28;20396;-59
2022/05/15 06:14:28;;;;;;;12.63;9.00;;;;;;;;;;5075235;28;20406;-56
2022/05/15 06:16:54;;;;;;;12.67;8.37;;;;;;;;;;5075155;28;20475;-57
2022/05/15 06:19:20;;;;;;;10.90;8.83;;;;;;;;;;5075525;28;20579;-58
2022/05/15 06:21:46;;;;;;;12.93;8.00;;;;;;;;;;5074785;28;20542;-57
2022/05/15 06:24:12;;;;;;;9.37;8.17;;;;;;;;;;5074882;28;20423;-57
2022/05/15 06:26:38;;;;;;;13.93;9.20;;;;;;;;;;5075516;28;20383;-56
2022/05/15 06:29:04;;;;;;;9.97;8.77;;;;;;;;;;5074945;28;20479;-58
2022/05/15 06:31:30;;;;;;;11.10;9.00;;;;;;;;;;5074720;28;20487;-58
2022/05/15 06:33:56;;;;;;;15.03;9.87;;;;;;;;;;5074513;28;20465;-59
2022/05/15 06:36:22;;;;;;;13.77;10.47;;;;;;;;;;5074943;28;20412;-56
2022/05/15 06:38:48;;;;;;;9.63;8.73;;;;;;;;;;5074949;28;20440;-57
2022/05/15 06:41:14;;;;;;;10.37;9.33;;;;;;;;;;5074809;28;20498;-56
2022/05/15 06:43:40;;;;;;;9.40;8.50;;;;;;;;;;5074775;28;20399;-57
2022/05/15 06:46:06;;;;;;;17.73;9.47;;;;;;;;;;5074796;28;21020;-58
2022/05/15 06:48:33;;;;;;;10.87;8.13;;;;;;;;;;5074795;28;20480;-57
2022/05/15 06:50:59;;;;;;;9.33;8.33;;;;;;;;;;5074713;28;20388;-58
2022/05/15 06:53:26;;;;;;;10.90;9.00;;;;;;;;;;5074682;28;20427;-57
2022/05/15 06:58:36;;;;;;;15.60;9.10;;;;;;;;;;5074858;28;20797;-57
2022/05/15 07:01:02;;;;;;;19.97;7.83;;;;;;;;;;5074159;28;20400;-58
2022/05/15 07:03:28;;;;;;;13.10;8.47;;;;;;;;;;5074384;28;20426;-59
2022/05/15 07:05:54;;;;;;;12.10;7.70;;;;;;;;;;5074291;28;20403;-56
2022/05/15 07:08:20;;;;;;;9.43;8.50;;;;;;;;;;5074278;28;20565;-59
2022/05/15 07:10:46;;;;;;;11.30;8.47;;;;;;;;;;5074175;28;20415;-57
2022/05/15 07:13:13;;;;;;;16.17;8.73;;;;;;;;;;5074076;28;20414;-57
2022/05/15 07:15:39;;;;;;;11.17;7.90;;;;;;;;;;5074256;28;20377;-56
2022/05/15 07:18:06;;;;;;;11.10;8.27;;;;;;;;;;5074050;28;20427;-59
2022/05/15 07:20:32;;;;;;;11.17;8.43;;;;;;;;;;5073953;28;20419;-59
2022/05/15 07:22:57;;;;;;;10.17;8.60;;;;;;;;;;5073657;28;20452;-58
2022/05/15 07:25:24;;;;;;;12.47;8.70;;;;;;;;;;5073870;28;20882;-57
2022/05/15 07:27:50;;;;;;;15.80;8.03;;;;;;;;;;5073668;28;20413;-57
2022/05/15 07:30:16;;;;;;;10.73;7.40;;;;;;;;;;5074027;28;20412;-57
2022/05/15 07:32:42;;;;;;;13.17;7.37;;;;;;;;;;5074040;28;20376;-58
2022/05/15 07:35:08;;;;;;;7.20;6.10;;;;;;;;;;5074835;28;20977;-58
2022/05/15 07:37:35;;;;;;;8.57;6.40;;;;;;;;;;5074654;28;20928;-58
2022/05/15 07:40:01;;;;;;;10.57;6.67;;;;;;;;;;5073674;28;20409;-58
2022/05/15 07:42:27;;;;;;;14.03;6.87;;;;;;;;;;5073320;28;20456;-58
2022/05/15 07:44:57;;;;;;;6.83;5.60;;;;;;;;;;5072308;28;20421;-58
2022/05/15 07:47:23;;;;;;;13.70;5.17;;;;;;;;;;5073376;28;20959;-59
2022/05/15 07:49:49;;;;;;;6.43;4.20;;;;;;;;;;5073601;28;20497;-57
2022/05/15 07:52:15;;;;;;;6.47;5.27;;;;;;;;;;5072882;28;20456;-57
2022/05/15 07:54:41;;;;;;;11.30;5.50;;;;;;;;;;5073375;28;20423;-57
2022/05/15 07:57:07;;;;;;;10.93;5.13;;;;;;;;;;5073268;28;20404;-57
2022/05/15 07:59:34;;;;;;;10.80;5.20;;;;;;;;;;5073218;28;20404;-59
2022/05/15 08:02:02;;;;;;;5.73;4.87;;;;;;;;;;5072804;28;20464;-58
2022/05/15 08:04:28;;;;;;;6.40;4.90;;;;;;;;;;5073122;28;20416;-57
2022/05/15 08:09:39;;;;;;;10.20;4.50;;;;;;;;;;5072406;28;20571;-60
2022/05/15 08:12:05;;;;;;;10.03;3.80;;;;;;;;;;5072380;28;20430;-61
2022/05/15 08:14:31;;;;;;;5.23;3.93;;;;;;;;;;5072778;28;20440;-60
2022/05/15 08:16:57;;;;;;;6.33;4.30;;;;;;;;;;5072742;28;20398;-59
2022/05/15 08:24:52;;;;;;;7.90;3.60;;;;;;;;;;5072717;28;20461;-58
2022/05/15 08:27:19;;;;;;;5.93;4.47;;;;;;;;;;5072620;28;20401;-60
2022/05/15 08:29:45;;;;;;;3.83;3.37;;;;;;;;;;5072663;28;20411;-59
2022/05/15 08:32:11;;;;;;;8.10;3.70;;;;;;;;;;5072176;28;20400;-60
2022/05/15 08:34:37;;;;;;;6.40;3.37;;;;;;;;;;5072205;28;20772;-60
2022/05/15 08:37:03;;;;;;;9.93;3.30;;;;;;;;;;5072547;28;20454;-60
2022/05/15 08:39:29;;;;;;;8.60;3.40;;;;;;;;;;5072453;28;20412;-60
2022/05/15 08:42:03;;;;;;;6.30;3.40;;;;;;;;;;5072103;28;20948;-60
2022/05/15 08:44:34;;;;;;;9.73;5.10;;;;;;;;;;5072509;28;20499;-59
2022/05/15 08:47:13;;;;;;;10.07;3.40;;;;;;;;;;5071487;28;20413;-59
2022/05/15 08:49:41;;;;;;;7.53;2.83;;;;;;;;;;5072013;28;20454;-60
2022/05/15 08:52:07;;;;;;;9.47;3.27;;;;;;;;;;5071585;28;20416;-60
2022/05/15 08:54:35;;;;;;;8.30;3.30;;;;;;;;;;5072294;28;20941;-60
2022/05/15 08:57:02;;;;;;;6.53;3.40;;;;;;;;;;5072140;28;20417;-60
2022/05/15 08:59:30;;;;;;;13.67;3.17;;;;;;;;;;5068257;28;20457;-60
2022/05/15 09:01:58;;;;;;;7.90;3.37;;;;;;;;;;5071530;28;20916;-61
2022/05/15 09:04:25;;;;;;;10.67;3.37;;;;;;;;;;5072328;28;20427;-60
2022/05/15 09:06:56;;;;;;;12.20;3.90;;;;;;;;;;5072234;28;20414;-60
2022/05/15 09:09:28;;;;;;;10.77;3.50;;;;;;;;;;5072207;28;20549;-60
2022/05/15 09:11:55;;;;;;;10.53;3.23;;;;;;;;;;5070884;28;20466;-60
2022/05/15 09:14:31;;;;;;;6.03;3.43;;;;;;;;;;5071535;28;20431;-60
2022/05/15 09:16:58;;;;;;;7.00;3.13;;;;;;;;;;5072099;28;20801;-60
2022/05/15 09:19:25;;;;;;;11.07;3.60;;;;;;;;;;5071944;28;20397;-57
2022/05/15 09:21:59;;;;;;;6.67;3.07;;;;;;;;;;5071627;28;20451;-56
2022/05/15 09:24:29;;;;;;;8.27;3.33;;;;;;;;;;5071710;28;20420;-58
2022/05/15 09:26:55;;;;;;;8.73;3.67;;;;;;;;;;5071843;28;20398;-60
2022/05/15 09:29:23;;;;;;;8.50;3.17;;;;;;;;;;5071808;28;20409;-59
2022/05/15 09:31:50;;;;;;;8.20;3.03;;;;;;;;;;5071798;28;20405;-58
2022/05/15 09:34:27;;;;;;;6.27;2.80;;;;;;;;;;5071763;28;20427;-59
2022/05/15 09:38:26;;;;;;;6.47;3.10;;;;;;;;;;5071929;28;20406;-59
2022/05/15 09:40:05;;;;;;;6.70;3.03;;;;;;;;;;5071703;28;20588;-60
2022/05/15 09:45:18;;;;;;;9.43;3.17;;;;;;;;;;5071473;28;20407;-59
2022/05/15 09:47:50;;;;;;;5.60;2.70;;;;;;;;;;5071550;28;20407;-58
2022/05/15 09:50:35;;;;;;;4.93;2.97;;;;;;;;;;5071521;28;20409;-59
2022/05/15 09:53:06;;;;;;;6.73;3.97;;;;;;;;;;5071215;28;20431;-59
2022/05/15 09:55:32;;;;;;;8.07;3.20;;;;;;;;;;5072035;28;20796;-59
2022/05/15 09:58:00;;;;;;;7.40;3.60;;;;;;;;;;5071869;28;20412;-58
2022/05/15 10:00:28;;;;;;;5.50;3.23;;;;;;;;;;5071786;28;20497;-58
2022/05/15 10:02:55;;;;;;;7.63;3.20;;;;;;;;;;5070657;28;20463;-59
2022/05/15 10:05:22;;;;;;;4.70;3.33;;;;;;;;;;5071638;28;20446;-59
2022/05/15 10:08:04;;;;;;;6.90;3.20;;;;;;;;;;5071286;28;20416;-59
2022/05/15 10:10:34;;;;;;;8.40;3.00;;;;;;;;;;5071356;28;20397;-58
2022/05/15 10:13:04;;;;;;;2.50;2.30;;;;;;;;;;5070644;28;20471;-59
2022/05/15 10:15:35;;;;;;;5.93;2.70;;;;;;;;;;5071487;28;20408;-59
2022/05/15 10:18:03;;;;;;;5.53;3.00;;;;;;;;;;5071257;28;20428;-59
2022/05/15 10:20:30;;;;;;;5.67;2.80;;;;;;;;;;5071323;28;20404;-59
2022/05/15 10:23:02;;;;;;;8.20;3.13;;;;;;;;;;5070273;28;20492;-59
2022/05/15 10:25:44;;;;;;;5.20;2.73;;;;;;;;;;5070787;28;20416;-60
2022/05/15 10:28:33;;;;;;;4.70;3.07;;;;;;;;;;5071259;28;20422;-59
2022/05/15 10:30:59;;;;;;;5.97;2.60;;;;;;;;;;5070206;28;20496;-59
2022/05/15 10:33:25;;;;;;;11.77;5.40;;;;;;;;;;5074365;28;20503;-59
2022/05/15 10:36:03;;;;;;;5.90;3.00;;;;;;;;;;5074844;28;20448;-59
2022/05/15 10:38:41;;;;;;;11.10;5.30;;;;;;;;;;5074738;28;20396;-59
2022/05/15 10:41:23;;;;;;;6.73;3.00;;;;;;;;;;5068779;28;20964;-59
2022/05/15 10:43:50;;;;;;;11.20;7.97;;;;;;;;;;5073962;28;20927;-59
2022/05/15 10:46:16;;;;;;;4.70;2.30;;;;;;;;;;5071476;28;20446;-57
2022/05/15 10:48:45;;;;;;;7.53;3.20;;;;;;;;;;5074352;28;20444;-59
2022/05/15 10:51:17;;;;;;;6.70;2.83;;;;;;;;;;5073986;28;20409;-59
2022/05/15 10:57:21;;;;;;;4.43;2.60;;;;;;;;;;5074092;28;20368;-59
2022/05/15 10:59:53;;;;;;;5.93;2.70;;;;;;;;;;5070130;28;20413;-58
2022/05/15 11:02:22;;;;;;;5.37;3.07;;;;;;;;;;5071493;28;20483;-59
2022/05/15 11:04:51;;;;;;;4.70;2.83;;;;;;;;;;5073425;28;20432;-59
2022/05/15 11:07:37;;;;;;;6.60;2.83;;;;;;;;;;5073878;28;20405;-59
2022/05/15 11:10:13;;;;;;;4.50;2.50;;;;;;;;;;5074224;28;20959;-59
2022/05/15 11:12:58;;;;;;;5.60;3.07;;;;;;;;;;5073804;28;20495;-59
2022/05/15 11:15:24;;;;;;;4.70;2.87;;;;;;;;;;5074281;28;20405;-59
2022/05/15 11:17:50;;;;;;;8.90;3.40;;;;;;;;;;5074461;28;20409;-59
2022/05/15 11:20:22;;;;;;;2.30;2.10;;;;;;;;;;5074026;28;20169;-59
2022/05/15 11:22:50;;;;;;;9.27;3.50;;;;;;;;;;5073039;28;20221;-59
2022/05/15 11:25:23;;;;;;;5.40;3.43;;;;;;;;;;5073065;28;20460;-59
2022/05/15 11:27:57;;;;;;;6.83;2.97;;;;;;;;;;5073899;28;20411;-59
2022/05/15 11:30:31;;;;;;;7.67;2.80;;;;;;;;;;5073423;28;20424;-58
2022/05/15 11:33:03;;;;;;;5.40;2.73;;;;;;;;;;5072420;28;20447;-59
2022/05/15 11:35:33;;;;;;;4.10;3.60;;;;;;;;;;5074076;28;20455;-60
2022/05/15 11:37:59;;;;;;;3.93;2.60;;;;;;;;;;5074760;28;20454;-60
2022/05/15 11:40:29;;;;;;;6.17;2.83;;;;;;;;;;5073857;28;20420;-59
2022/05/15 11:42:55;;;;;;;6.73;3.03;;;;;;;;;;5072795;28;20456;-59
2022/05/15 11:45:30;;;;;;;5.37;2.40;;;;;;;;;;5074114;28;20424;-60
2022/05/15 11:48:03;;;;;;;6.70;3.37;;;;;;;;;;5074400;28;20454;-59
2022/05/15 11:50:37;;;;;;;4.00;3.20;;;;;;;;;;5073704;28;20835;-60
2022/05/15 11:53:06;;;;;;;6.13;2.60;;;;;;;;;;5073692;28;20928;-60
2022/05/15 11:55:46;;;;;;;6.60;2.90;;;;;;;;;;5073281;28;20498;-59
2022/05/15 11:58:27;;;;;;;5.37;2.27;;;;;;;;;;5072055;28;20771;-59
2022/05/15 12:01:01;;;;;;;6.13;2.87;;;;;;;;;;5070920;28;20415;-59
2022/05/15 12:03:29;;;;;;;7.60;3.70;;;;;;;;;;5072536;28;20439;-59
2022/05/15 12:06:07;;;;;;;4.07;2.47;;;;;;;;;;5073105;28;20957;-60
2022/05/15 12:08:34;;;;;;;6.23;2.87;;;;;;;;;;5072685;28;20507;-59
2022/05/15 12:11:18;;;;;;;4.90;4.03;;;;;;;;;;5072292;28;20400;-59
2022/05/15 12:13:45;;;;;;;6.30;2.80;;;;;;;;;;5073048;28;20841;-59
2022/05/15 12:16:14;;;;;;;3.17;2.10;;;;;;;;;;5073473;28;20407;-60
2022/05/15 12:18:41;;;;;;;4.63;2.63;;;;;;;;;;5073300;28;20392;-60
2022/05/15 12:21:08;;;;;;;6.27;2.77;;;;;;;;;;5072579;28;20400;-59
2022/05/15 12:23:35;;;;;;;5.93;2.80;;;;;;;;;;5072826;28;20504;-59
2022/05/15 12:26:22;;;;;;;4.93;2.77;;;;;;;;;;5072634;28;20839;-59
2022/05/15 12:28:54;;;;;;;7.43;3.37;;;;;;;;;;5072063;28;20892;-59
2022/05/15 12:31:23;;;;;;;7.80;3.20;;;;;;;;;;5072094;28;20408;-59
2022/05/15 12:33:50;;;;;;;7.03;2.70;;;;;;;;;;5072619;28;20495;-59
2022/05/15 12:36:36;;;;;;;8.73;2.83;;;;;;;;;;5072401;28;20401;-59
2022/05/15 12:39:03;;;;;;;6.47;3.23;;;;;;;;;;5071648;28;20439;-59
2022/05/15 12:41:37;;;;;;;8.00;3.00;;;;;;;;;;5071770;28;20467;-59
2022/05/15 12:44:08;;;;;;;5.37;2.90;;;;;;;;;;5072214;28;20435;-58
2022/05/15 12:46:35;;;;;;;5.00;2.60;;;;;;;;;;5071031;28;20992;-59
2022/05/15 12:49:01;;;;;;;5.43;2.80;;;;;;;;;;5071714;28;20400;-59
2022/05/15 12:51:31;;;;;;;4.93;2.33;;;;;;;;;;5071054;28;20420;-59
2022/05/15 12:53:57;;;;;;;12.33;3.87;;;;;;;;;;5071970;28;20797;-59
2022/05/15 12:56:26;;;;;;;4.77;2.20;;;;;;;;;;5070754;28;20423;-59
2022/05/15 12:58:54;;;;;;;5.37;2.60;;;;;;;;;;5070773;28;20424;-59
2022/05/15 13:01:20;;;;;;;3.90;2.17;;;;;;;;;;5069698;28;20619;-59
2022/05/15 13:03:50;;;;;;;6.53;4.23;;;;;;;;;;5071728;28;20431;-59
2022/05/15 13:06:20;;;;;;;3.93;1.90;;;;;;;;;;5076345;28;20411;-59
2022/05/15 13:08:49;;;;;;;6.70;3.13;;;;;;;;;;5092022;28;20400;-59
2022/05/15 13:11:34;;;;;;;5.50;2.50;;;;;;;;;;5068436;28;20831;-59
2022/05/15 13:14:01;;;;;;;6.90;2.40;;;;;;;;;;5071920;28;20550;-59
2022/05/15 13:16:27;;;;;;;7.53;3.20;;;;;;;;;;5071642;28;20408;-59
2022/05/15 13:18:54;;;;;;;3.47;2.40;;;;;;;;;;5071380;28;20413;-59
2022/05/15 13:21:23;;;;;;;5.40;2.80;;;;;;;;;;5070465;28;20448;-59
2022/05/15 13:23:49;;;;;;;4.70;2.97;;;;;;;;;;5072144;28;20436;-59
2022/05/15 13:26:23;;;;;;;4.77;3.00;;;;;;;;;;5072155;28;20397;-59
2022/05/15 13:28:49;;;;;;;5.90;2.60;;;;;;;;;;5071951;28;20405;-60
2022/05/15 13:31:15;;;;;;;6.50;3.43;;;;;;;;;;5071059;28;20435;-59
2022/05/15 13:33:43;;;;;;;6.63;2.90;;;;;;;;;;5071027;28;20440;-61
2022/05/15 13:36:13;;;;;;;5.17;2.87;;;;;;;;;;5071210;28;20451;-60
2022/05/15 13:44:13;;;;;;;8.87;3.17;;;;;;;;;;5072801;28;20932;-59
2022/05/15 13:46:43;;;;;;;7.83;3.37;;;;;;;;;;5071467;28;20850;-60
2022/05/15 13:49:11;;;;;;;8.20;2.93;;;;;;;;;;5070651;28;20408;-59
2022/05/15 13:51:40;;;;;;;7.63;3.33;;;;;;;;;;5070397;28;20412;-59
2022/05/15 13:54:14;;;;;;;11.97;3.10;;;;;;;;;;5071800;28;20442;-60
2022/05/15 13:56:40;;;;;;;5.50;2.53;;;;;;;;;;5072037;28;20401;-60
2022/05/15 13:59:07;;;;;;;5.53;2.30;;;;;;;;;;5071993;28;20411;-61
2022/05/15 14:01:36;;;;;;;2.83;2.17;;;;;;;;;;5070980;28;20455;-60
2022/05/15 14:04:20;;;;;;;6.30;3.40;;;;;;;;;;5071411;28;20453;-61
2022/05/15 14:06:46;;;;;;;3.30;2.83;;;;;;;;;;5073035;28;20934;-60
2022/05/15 14:09:14;;;;;;;2.80;2.30;;;;;;;;;;5075585;28;20478;-60
2022/05/15 14:11:58;;;;;;;3.73;2.37;;;;;;;;;;5074920;28;20430;-61
2022/05/15 14:14:43;;;;;;;4.13;2.27;;;;;;;;;;5085263;28;20445;-60
2022/05/15 14:17:10;;;;;;;6.17;3.00;;;;;;;;;;5072843;28;20899;-60
2022/05/15 14:19:46;;;;;;;5.43;2.50;;;;;;;;;;5075264;28;20404;-59
2022/05/15 14:22:12;;;;;;;3.73;2.20;;;;;;;;;;5074594;28;20509;-60
2022/05/15 14:24:39;;;;;;;5.80;2.60;;;;;;;;;;5073813;28;20432;-59
2022/05/15 14:27:06;;;;;;;4.47;2.93;;;;;;;;;;5075319;28;20399;-59
2022/05/15 14:29:32;;;;;;;4.00;2.37;;;;;;;;;;5074698;28;20416;-60
2022/05/15 14:32:05;;;;;;;3.43;2.73;;;;;;;;;;5077932;28;20422;-60
2022/05/15 14:34:31;;;;;;;4.03;2.83;;;;;;;;;;5091325;28;20947;-60
2022/05/15 14:36:57;;;;;;;4.90;2.63;;;;;;;;;;5074871;28;20756;-60
2022/05/15 14:39:23;;;;;;;4.83;2.80;;;;;;;;;;5074801;28;20420;-60
2022/05/15 14:41:49;;;;;;;7.27;2.73;;;;;;;;;;5074546;28;20962;-59
2022/05/15 14:44:15;;;;;;;10.10;3.10;;;;;;;;;;5095850;28;20997;-60
2022/05/15 14:46:42;;;;;;;6.10;2.50;;;;;;;;;;5079417;28;20412;-60
2022/05/15 14:49:10;;;;;;;5.50;3.23;;;;;;;;;;5074633;28;20899;-60
2022/05/15 14:51:37;;;;;;;8.03;3.00;;;;;;;;;;5073498;28;20511;-61
2022/05/15 14:54:04;;;;;;;5.80;2.77;;;;;;;;;;5074051;28;20432;-59
2022/05/15 14:56:32;;;;;;;3.10;2.50;;;;;;;;;;5085659;28;20492;-59
2022/05/15 14:59:05;;;;;;;6.47;3.40;;;;;;;;;;5093649;28;20809;-59
2022/05/15 15:01:31;;;;;;;5.30;2.70;;;;;;;;;;5086593;28;20456;-60
2022/05/15 15:03:57;;;;;;;5.43;2.93;;;;;;;;;;5072303;28;20430;-60